• Join FlightAware (Why Join?)
  • Login
  • US Flag 
11:33PM EDT


 

Airport Tracker/Info


-or-


 

Live Flight TrackerFlight Track Log ✈ N777NC ✈ 02-Jul-2013 ✈ KATL - KGPT

Flight Track Log - Related Links

Times and Time Zones

All times are in EDT time to prevent confusion due to time zone crossing. See the N777NC flight status page for this flight to view local times or setup timezone preferences in your user account.

Time Position Orientation Groundspeed Altitude Reporting Facility
EDT Latitude Longitude Course Direction KTS MPH feet Rate Location/Type
06:14PM 33.6500 -84.3833 220° Southwest 186 214 2,100  Level Atlanta TRACON
06:15PM 33.6667 -84.3167 73° East 259 298 3,400 1,980 Climbing Atlanta TRACON
06:16PM 33.7333 -84.2833 23° Northeast 280 322 5,900 2,520 Climbing Atlanta TRACON
06:16PM 33.8000 -84.3167 337° Northwest 284 327 8,200 1,980 Climbing Atlanta TRACON
06:17PM 33.5494 -84.8990 260° West  Level FlightAware Approximate
06:18PM 33.5312 -85.0201 260° West  Level FlightAware Approximate
06:18PM 33.7956 -84.4639 268° West 290 334 11,200  Level Atlanta Center
06:19PM 33.5007 -85.1327 220° Southwest  Level FlightAware Approximate
06:19PM 33.7722 -84.5661 255° West 307 353 12,400  Level Atlanta Center
06:20PM 33.7300 -84.6658 243° Southwest 328 377 14,700 1,980 Climbing Atlanta Center
06:21PM 33.6858 -84.7578 240° Southwest 328 377 16,400 1,680 Climbing Atlanta Center
06:22PM 33.6308 -84.8697 239° Southwest 342 394 18,100 1,560 Climbing Atlanta Center
06:23PM 33.5861 -84.9714 242° Southwest 349 402 19,600 1,500 Climbing Atlanta Center
06:24PM 33.5414 -85.0756 243° Southwest 354 407 21,100 1,440 Climbing Atlanta Center
06:25PM 33.4947 -85.1822 242° Southwest 360 414 22,500 1,260 Climbing Atlanta Center
06:26PM 33.4478 -85.2886 242° Southwest 366 421 23,700 1,200 Climbing Atlanta Center
06:27PM 33.3819 -85.3772 228° Southwest 361 415 25,000 1,080 Climbing Atlanta Center
06:28PM 33.2978 -85.4456 214° Southwest 360 414 25,900 900 Climbing Atlanta Center
06:29PM 33.2242 -85.5039 214° Southwest 365 420 26,900 900 Climbing Atlanta Center
06:30PM 33.1397 -85.5744 215° Southwest 370 426 27,700 540 Climbing Atlanta Center
06:31PM 33.0511 -85.6422 213° Southwest 375 432 28,000 120 Climbing Atlanta Center
06:32PM 32.9625 -85.7247 218° Southwest 393 452 28,000  Level Atlanta Center
06:33PM 32.8817 -85.8247 226° Southwest 406 467 28,000  Level Atlanta Center
06:34PM 32.7967 -85.9242 225° Southwest 417 480 28,000  Level Atlanta Center
06:35PM 32.7158 -86.0214 225° Southwest 422 486 28,000  Level Atlanta Center
06:36PM 32.6283 -86.1328 227° Southwest 422 486 28,000  Level Atlanta Center
06:37PM 32.5494 -86.2294 226° Southwest 422 486 28,000  Level Atlanta Center
06:38PM 32.4683 -86.3283 226° Southwest 422 486 28,000  Level Atlanta Center
06:39PM 32.3978 -86.4200 228° Southwest 423 487 28,000  Level Atlanta Center
06:40PM 32.3208 -86.5214 228° Southwest 418 481 28,000  Level Atlanta Center
06:41PM 32.2394 -86.6197 226° Southwest 418 481 28,000  Level Atlanta Center
06:42PM 32.1475 -86.7225 223° Southwest 418 481 28,000  Level Atlanta Center
06:43PM 32.0639 -86.8206 225° Southwest 418 481 28,000  Level Atlanta Center
06:44PM 31.9783 -86.9108 222° Southwest 424 488 28,000  Level Atlanta Center
06:45PM 31.8906 -87.0011 221° Southwest 424 488 28,000  Level Atlanta Center
06:46PM 31.8028 -87.0911 221° Southwest 424 488 28,000  Level Atlanta Center
06:47PM 31.7172 -87.1808 222° Southwest 424 488 28,000  Level Atlanta Center
06:49PM 31.5992 -87.3183 225° Southwest 418 481 28,000  Level Houston Center
06:50PM 31.5167 -87.4131 224° Southwest 415 478 28,000  Level Houston Center
06:51PM 31.4336 -87.5092 225° Southwest 418 481 28,000  Level Houston Center
06:52PM 31.3522 -87.6047 225° Southwest 414 476 28,000 -180 Level Houston Center
06:53PM 31.2706 -87.7017 225° Southwest 417 480 27,700 -780 Descending Houston Center
06:54PM 31.1839 -87.8042 225° Southwest 413 475 26,500 -1,200 Descending Houston Center
06:55PM 31.1067 -87.8978 226° Southwest 400 460 25,300 -2,040 Descending Houston Center
06:56PM 31.0214 -88.0011 226° Southwest 389 448 22,300 -2,820 Descending Houston Center
06:57PM 30.9561 -88.1019 233° Southwest 384 442 19,500 -2,700 Descending Houston Center
06:58PM 30.8900 -88.1972 231° Southwest 371 427 16,800 -2,700 Descending Houston Center
06:59PM 30.8406 -88.2986 240° Southwest 360 414 14,000 -2,640 Descending Houston Center
07:00PM 30.7994 -88.4008 245° Southwest 350 403 11,400 -1,500 Descending Houston Center
07:01PM 30.7683 -88.5053 251° West 342 394 11,000 -240 Descending Houston Center
07:02PM 30.7169 -88.5936 236° Southwest 333 383 11,000 -420 Level Houston Center
07:03PM 30.6650 -88.6661 230° Southwest 299 344 10,200 -1,500 Descending Houston Center
07:04PM 30.6056 -88.7497 230° Southwest 284 327 7,900 -1,980 Descending Houston Center
07:05PM 30.5639 -88.8247 237° Southwest 278 320 6,200 -1,740 Descending Houston Center
07:06PM 30.5269 -88.9006 241° Southwest 273 314 4,400 -1,740 Descending Houston Center
07:07PM 30.4986 -88.9722 245° Southwest 258 297 2,700 -1,320 Descending Houston Center
07:08PM 30.4983 -89.0419 270° West 226 260 1,800 -480 Descending Houston Center
07:09PM 30.4936 -89.1025 265° West 200 230 1,800 -540 Level Houston Center
07:10PM 30.4442 -89.1169 194° South 160 184 800 -840 Descending Houston Center
07:11PM 30.4147 -89.0842 136° Southeast 148 170 100 -720 Descending Houston Center
07:13PM 30.4000 -89.0667 235° Southwest  Level FlightAware Approximate
07:20PM 30.4073 -89.0701 235° Southwest  Level Estimated
07:21PM 30.4073 -89.0701 235° Southwest  Level Estimated